Time;durP1;ratioP1;P1;durP2;ratioP2;P2;SDS_P1;SDS_P2;PMS_P1;PMS_P2;Temp;Humidity;BMP_temperature;BMP_pressure;BME280_temperature;BME280_humidity;BME280_pressure;Samples;Min_cycle;Max_cycle;Signal;HPM_P1;HPM_P2
2021/09/09 00:01:23;;;;;;;22.63;20.00;;;16.50;99.90;;;;;;4944457;29;20448;-86
2021/09/09 00:04:01;;;;;;;23.33;20.40;;;16.50;99.90;;;;;;4949260;29;20494;-87
2021/09/09 00:06:53;;;;;;;25.50;19.87;;;16.40;99.90;;;;;;4945944;29;20463;-85
2021/09/09 00:09:29;;;;;;;23.97;19.03;;;16.60;99.90;;;;;;4949914;29;20501;-86
2021/09/09 00:12:08;;;;;;;24.60;19.47;;;16.40;99.90;;;;;;4946498;29;20479;-86
2021/09/09 00:14:48;;;;;;;26.80;21.10;;;16.40;99.90;;;;;;4947947;29;20439;-86
2021/09/09 00:20:20;;;;;;;22.00;18.83;;;18.10;99.90;;;;;;4942634;29;20471;-86
2021/09/09 00:23:11;;;;;;;25.83;19.50;;;16.50;99.90;;;;;;4945423;29;20775;-86
2021/09/09 00:25:44;;;;;;;22.47;18.83;;;;;;;;;;4945993;29;20915;-87
2021/09/09 00:28:41;;;;;;;20.77;18.27;;;16.20;99.90;;;;;;4946748;29;20538;-86
2021/09/09 00:31:31;;;;;;;20.80;17.50;;;16.50;99.90;;;;;;4946478;29;20455;-86
2021/09/09 00:33:58;;;;;;;23.27;19.50;;;;;;;;;;4945658;29;20460;-86
2021/09/09 00:39:39;;;;;;;23.47;19.53;;;19.10;99.90;;;;;;4927528;29;20449;-86
2021/09/09 00:45:02;;;;;;;21.30;19.00;;;16.10;99.90;;;;;;4942962;29;20443;-86
2021/09/09 00:47:40;;;;;;;20.97;18.70;;;16.00;99.90;;;;;;4943708;29;20448;-86
2021/09/09 00:50:13;;;;;;;27.93;19.07;;;15.80;99.90;;;;;;4943990;29;20479;-86
2021/09/09 00:56:13;;;;;;;20.70;18.50;;;15.90;99.90;;;;;;4940774;29;20444;-86
2021/09/09 00:58:53;;;;;;;21.00;18.90;;;17.40;99.90;;;;;;4943217;29;20855;-86
2021/09/09 01:01:29;;;;;;;21.80;18.73;;;15.90;99.90;;;;;;4943948;29;20457;-86
2021/09/09 01:04:11;;;;;;;23.27;18.87;;;15.90;99.90;;;;;;4944165;29;20458;-86
2021/09/09 01:09:30;;;;;;;21.33;18.90;;;;;;;;;;4941342;29;20459;-86
2021/09/09 01:12:01;;;;;;;19.57;17.50;;;15.90;99.90;;;;;;4943879;29;20524;-86
2021/09/09 01:14:28;;;;;;;20.80;18.60;;;;;;;;;;4943746;29;20492;-86
2021/09/09 01:17:13;;;;;;;24.50;19.37;;;15.90;99.90;;;;;;4946865;29;20456;-86
2021/09/09 01:23:09;;;;;;;22.77;19.30;;;15.90;99.90;;;;;;4917741;29;20452;-86
2021/09/09 01:26:11;;;;;;;21.67;19.30;;;15.80;99.90;;;;;;4949272;29;20447;-85
2021/09/09 01:31:50;;;;;;;23.30;20.70;;;15.70;99.90;;;;;;4959972;28;20546;-86
2021/09/09 01:34:30;;;;;;;20.93;18.27;;;15.70;99.90;;;;;;4960130;28;20428;-86
2021/09/09 01:37:18;;;;;;;20.67;17.83;;;15.70;99.90;;;;;;4958385;29;20451;-86
2021/09/09 01:40:06;;;;;;;23.40;18.90;;;15.50;99.90;;;;;;4955722;29;20474;-86
2021/09/09 01:42:50;;;;;;;21.90;19.27;;;15.50;99.90;;;;;;4953044;29;20512;-85
2021/09/09 01:45:44;;;;;;;25.37;20.90;;;15.50;99.90;;;;;;4946304;29;20467;-85
2021/09/09 01:48:11;;;;;;;22.97;18.63;;;;;;;;;;4950055;29;20468;-85
2021/09/09 01:50:52;;;;;;;22.70;19.20;;;15.30;99.90;;;;;;4957109;29;20476;-84
2021/09/09 01:53:33;;;;;;;21.30;19.07;;;17.90;99.90;;;;;;4941013;29;20578;-84
2021/09/09 01:56:05;;;;;;;27.70;19.57;;;;;;;;;;4942158;29;20416;-86
2021/09/09 01:59:00;;;;;;;25.07;20.00;;;15.30;99.90;;;;;;4943539;29;20546;-86
2021/09/09 02:01:37;;;;;;;20.20;18.20;;;17.80;99.90;;;;;;4944418;29;20514;-84
2021/09/09 02:04:05;;;;;;;22.87;19.70;;;;;;;;;;4944518;29;20456;-86
2021/09/09 02:06:46;;;;;;;20.97;18.80;;;15.30;99.90;;;;;;4943499;29;20464;-84
2021/09/09 02:09:16;;;;;;;22.27;19.87;;;15.20;99.90;;;;;;4945531;29;20499;-84
2021/09/09 02:11:50;;;;;;;23.80;19.93;;;15.20;99.90;;;;;;4942003;29;20458;-85
2021/09/09 02:14:45;;;;;;;26.20;19.40;;;15.30;99.90;;;;;;4942418;29;20817;-85
2021/09/09 02:17:43;;;;;;;;;;;;;;;;;;;;;
2021/09/09 02:23:16;;;;;;;21.73;19.43;;;15.40;99.90;;;;;;4958366;29;20432;-84
2021/09/09 02:25:51;;;;;;;20.30;17.33;;;16.60;99.90;;;;;;4958616;28;20455;-85
2021/09/09 02:28:35;;;;;;;23.20;19.57;;;15.30;99.90;;;;;;4959451;29;20487;-84
2021/09/09 02:31:28;;;;;;;23.23;17.20;;;15.40;99.90;;;;;;4947007;29;20555;-86
2021/09/09 02:33:55;;;;;;;21.10;18.80;;;;;;;;;;4937735;29;20586;-85
2021/09/09 02:36:22;;;;;;;20.67;17.93;;;;;;;;;;4946261;29;20490;-85
2021/09/09 02:38:54;;;;;;;21.60;17.50;;;15.30;99.90;;;;;;4946596;29;20471;-86
2021/09/09 02:41:22;;;;;;;21.77;18.27;;;;;;;;;;4945643;29;20447;-86
2021/09/09 02:46:51;;;;;;;19.13;17.10;;;15.20;99.90;;;;;;4943379;29;20781;-86
2021/09/09 02:49:28;;;;;;;21.47;17.97;;;15.20;99.90;;;;;;4942406;29;20507;-86
2021/09/09 02:52:10;;;;;;;20.30;18.20;;;14.00;99.90;;;;;;4943111;29;20435;-85
2021/09/09 02:54:38;;;;;;;21.33;19.10;;;;;;;;;;4942411;29;20455;-87
2021/09/09 02:57:18;;;;;;;21.83;18.00;;;15.20;99.90;;;;;;4942959;29;20853;-86
2021/09/09 02:59:51;;;;;;;23.10;18.40;;;;;;;;;;4949513;29;20483;-86
2021/09/09 03:02:39;;;;;;;20.60;18.00;;;15.00;99.90;;;;;;4958669;29;20455;-86
2021/09/09 03:08:02;;;;;;;24.37;18.87;;;14.90;99.90;;;;;;4941765;29;20511;-86
2021/09/09 03:10:35;;;;;;;20.30;18.20;;;;;;;;;;4943817;29;20471;-85
2021/09/09 03:13:10;;;;;;;21.37;18.03;;;14.90;99.90;;;;;;4941113;29;20836;-85
2021/09/09 03:15:49;;;;;;;20.60;18.50;;;14.80;99.90;;;;;;4941821;29;20412;-86
2021/09/09 03:18:31;;;;;;;21.57;19.27;;;15.00;99.90;;;;;;4942072;29;20505;-86
2021/09/09 03:21:11;;;;;;;21.77;17.73;;;15.20;99.90;;;;;;4941445;29;20491;-86
2021/09/09 03:23:44;;;;;;;20.30;18.03;;;14.80;99.90;;;;;;4941865;29;20454;-86
2021/09/09 03:26:17;;;;;;;21.37;18.67;;;14.80;99.90;;;;;;4943054;29;20455;-86
2021/09/09 03:28:46;;;;;;;22.03;19.30;;;;;;;;;;4942367;29;20922;-86
2021/09/09 03:31:20;;;;;;;22.33;19.70;;;;;;;;;;4941449;29;20464;-86
2021/09/09 03:33:55;;;;;;;24.40;17.13;;;14.70;99.90;;;;;;4942653;29;20807;-86
2021/09/09 03:36:22;;;;;;;20.20;17.63;;;;;;;;;;4944555;29;20514;-86
2021/09/09 03:38:55;;;;;;;23.20;19.07;;;;;;;;;;4945957;29;20546;-86
2021/09/09 03:41:22;;;;;;;24.07;17.97;;;;;;;;;;4950377;29;20463;-86
2021/09/09 03:46:43;;;;;;;20.53;18.33;;;14.80;99.90;;;;;;4947965;29;20473;-86
2021/09/09 03:49:16;;;;;;;23.10;18.83;;;14.70;99.90;;;;;;4961443;29;20450;-84
2021/09/09 03:54:46;;;;;;;18.53;16.20;;;;;;;;;;4937416;29;20455;-85
2021/09/09 03:57:48;;;;;;;20.80;17.97;;;14.70;99.90;;;;;;4953443;28;20435;-86
2021/09/09 04:00:21;;;;;;;22.80;17.93;;;14.70;99.90;;;;;;4948086;29;20465;-85
2021/09/09 04:03:18;;;;;;;27.00;17.20;;;14.60;99.90;;;;;;4960539;29;20439;-86
2021/09/09 04:11:56;;;;;;;19.87;17.60;;;13.50;99.90;;;;;;4950226;29;20458;-84
2021/09/09 04:14:34;;;;;;;23.87;17.57;;;14.70;99.90;;;;;;4949505;29;20487;-85
2021/09/09 04:20:03;;;;;;;21.60;16.87;;;14.60;99.90;;;;;;4945303;29;20584;-86
2021/09/09 04:22:58;;;;;;;19.63;17.57;;;14.80;99.90;;;;;;4949921;29;20529;-86
2021/09/09 04:25:49;;;;;;;19.93;17.60;;;14.80;99.90;;;;;;4916904;29;20463;-86
2021/09/09 04:28:16;;;;;;;25.40;18.57;;;;;;;;;;4948134;29;20454;-86
2021/09/09 04:31:02;;;;;;;19.70;17.60;;;14.60;99.90;;;;;;4948859;29;20507;-85
2021/09/09 04:33:53;;;;;;;18.90;16.63;;;14.30;99.90;;;;;;4949955;29;20486;-86
2021/09/09 04:36:30;;;;;;;22.13;18.50;;;15.10;99.90;;;;;;4948426;29;20452;-86
2021/09/09 04:39:20;;;;;;;19.87;17.77;;;15.00;99.90;;;;;;4947246;29;20484;-86
2021/09/09 04:42:34;;;;;;;19.27;17.27;;;14.50;99.90;;;;;;4950075;29;20448;-85
2021/09/09 04:45:21;;;;;;;24.33;18.70;;;14.40;99.90;;;;;;4947394;29;20474;-86
2021/09/09 04:48:10;;;;;;;;;;;;;;;;;;;;;
2021/09/09 04:50:42;;;;;;;21.47;17.80;;;;;;;;;;4947200;29;20491;-85
2021/09/09 04:53:33;;;;;;;23.40;18.80;;;17.00;99.90;;;;;;4961415;29;20467;-85
2021/09/09 04:56:13;;;;;;;20.27;17.90;;;13.90;99.90;;;;;;4961334;29;20505;-84
2021/09/09 04:58:57;;;;;;;22.97;17.00;;;14.20;99.90;;;;;;4960258;29;20485;-85
2021/09/09 05:07:30;;;;;;;22.77;17.80;;;14.40;99.90;;;;;;4943014;29;20503;-86
2021/09/09 05:16:32;;;;;;;22.43;17.47;;;13.80;99.90;;;;;;4944197;29;20941;-86
2021/09/09 05:18:59;;;;;;;20.37;18.33;;;14.70;99.90;;;;;;4941763;23;20486;-82
2021/09/09 05:21:26;;;;;;;20.73;18.20;;;14.40;99.90;;;;;;4976198;29;20427;-83
2021/09/09 05:23:52;;;;;;;28.53;17.80;;;14.60;99.90;;;;;;4980316;28;20454;-82
2021/09/09 05:26:19;;;;;;;18.77;16.77;;;14.70;99.90;;;;;;4977037;28;20474;-82
2021/09/09 05:28:47;;;;;;;22.10;17.10;;;14.60;99.90;;;;;;4977935;28;20453;-82
2021/09/09 05:31:13;;;;;;;22.87;17.27;;;14.60;99.90;;;;;;4974776;29;20486;-82
2021/09/09 05:33:40;;;;;;;20.97;16.57;;;14.70;99.90;;;;;;4971871;29;20493;-82
2021/09/09 05:36:06;;;;;;;36.53;30.30;;;14.70;99.90;;;;;;4973001;29;20439;-82
2021/09/09 05:38:33;;;;;;;18.97;16.00;;;14.80;99.90;;;;;;4969726;29;20450;-84
2021/09/09 05:41:00;;;;;;;21.40;16.80;;;14.70;99.90;;;;;;4962774;28;20525;-84
2021/09/09 05:43:26;;;;;;;20.13;15.33;;;14.70;99.90;;;;;;4961973;28;20577;-84
2021/09/09 05:45:54;;;;;;;22.43;17.40;;;14.80;99.90;;;;;;4961876;29;20474;-84
2021/09/09 05:48:21;;;;;;;24.80;17.60;;;14.70;99.90;;;;;;4961805;29;20459;-84
2021/09/09 05:50:47;;;;;;;22.63;17.70;;;14.70;99.90;;;;;;4961341;28;20475;-83
2021/09/09 05:53:14;;;;;;;18.50;16.60;;;14.70;99.90;;;;;;4961814;28;20510;-83
2021/09/09 05:55:41;;;;;;;30.53;17.27;;;14.70;99.90;;;;;;4962247;29;20482;-84
2021/09/09 05:58:07;;;;;;;20.33;16.87;;;14.70;99.90;;;;;;4969718;28;20458;-82
2021/09/09 06:00:34;;;;;;;24.87;16.93;;;14.80;99.90;;;;;;4962065;28;20525;-84
2021/09/09 06:03:02;;;;;;;23.30;16.67;;;15.00;99.90;;;;;;4961771;29;20467;-85
2021/09/09 06:05:29;;;;;;;24.80;16.87;;;15.10;99.90;;;;;;4961823;29;21016;-84
2021/09/09 06:07:56;;;;;;;20.73;16.97;;;15.10;99.90;;;;;;4962012;29;20432;-84
2021/09/09 06:10:23;;;;;;;25.20;16.50;;;15.00;99.90;;;;;;4973002;28;20467;-82
2021/09/09 06:12:49;;;;;;;22.20;16.67;;;15.00;99.90;;;;;;4974782;29;20442;-84
2021/09/09 06:15:16;;;;;;;22.60;16.17;;;15.10;99.90;;;;;;4972939;29;20446;-83
2021/09/09 06:17:42;;;;;;;23.20;15.93;;;15.20;99.90;;;;;;4965903;29;20872;-84
2021/09/09 06:20:12;;;;;;;17.50;14.27;;;15.30;99.90;;;;;;4970192;28;20511;-84
2021/09/09 06:22:40;;;;;;;23.60;14.40;;;15.30;99.90;;;;;;4965934;29;20451;-84
2021/09/09 06:25:07;;;;;;;15.90;13.37;;;15.50;99.90;;;;;;4964350;29;20469;-84
2021/09/09 06:27:33;;;;;;;17.97;14.03;;;15.50;99.90;;;;;;4967677;29;20470;-83
2021/09/09 06:30:00;;;;;;;18.60;15.27;;;15.60;99.90;;;;;;4971978;28;20474;-83
2021/09/09 06:32:26;;;;;;;14.33;12.90;;;15.70;99.90;;;;;;4965052;29;20470;-83
2021/09/09 06:34:53;;;;;;;19.10;13.13;;;15.70;99.90;;;;;;4961628;29;20506;-84
2021/09/09 06:37:21;;;;;;;17.67;14.63;;;15.70;99.90;;;;;;4961258;28;20509;-84
2021/09/09 06:39:48;;;;;;;16.63;13.03;;;15.80;99.90;;;;;;4960785;28;20877;-83
2021/09/09 06:42:15;;;;;;;15.10;12.70;;;15.80;99.90;;;;;;4961495;29;20454;-84
2021/09/09 06:44:42;;;;;;;17.60;13.40;;;15.90;99.90;;;;;;4961578;29;20518;-84
2021/09/09 06:47:08;;;;;;;17.30;13.93;;;16.00;99.90;;;;;;4960996;29;20454;-83
2021/09/09 06:49:35;;;;;;;18.77;14.90;;;16.00;99.90;;;;;;4961061;28;20475;-85
2021/09/09 06:52:01;;;;;;;22.37;12.30;;;16.10;99.90;;;;;;4961498;29;20451;-82
2021/09/09 06:54:29;;;;;;;14.23;12.47;;;16.20;99.90;;;;;;4961098;29;20447;-83
2021/09/09 06:56:56;;;;;;;24.83;12.37;;;16.20;99.90;;;;;;4961529;28;20510;-84
2021/09/09 06:59:22;;;;;;;20.63;13.27;;;16.30;99.90;;;;;;4961970;28;21067;-85
2021/09/09 07:01:51;;;;;;;22.27;13.50;;;16.40;99.90;;;;;;4960947;28;20446;-85
2021/09/09 07:04:18;;;;;;;16.27;11.20;;;16.60;99.90;;;;;;4960354;29;21056;-83
2021/09/09 07:06:45;;;;;;;14.97;11.90;;;16.50;99.90;;;;;;4959651;29;20459;-84
2021/09/09 07:09:11;;;;;;;11.50;10.00;;;16.70;99.90;;;;;;4960373;28;20474;-84
2021/09/09 07:11:39;;;;;;;11.90;10.43;;;16.70;99.90;;;;;;4961076;28;20421;-84
2021/09/09 07:14:06;;;;;;;13.50;10.63;;;16.80;99.90;;;;;;4971257;28;20461;-83
2021/09/09 07:16:32;;;;;;;12.43;11.13;;;16.90;99.90;;;;;;4969888;28;20447;-83
2021/09/09 07:18:59;;;;;;;12.10;10.77;;;17.00;99.90;;;;;;4963728;28;20482;-82
2021/09/09 07:21:26;;;;;;;14.63;10.67;;;;;;;;;;4959333;28;20459;-83
2021/09/09 07:23:53;;;;;;;11.67;9.33;;;17.10;99.90;;;;;;4959909;28;20514;-83
2021/09/09 07:26:19;;;;;;;12.17;9.63;;;17.10;99.90;;;;;;4963281;29;20482;-84
2021/09/09 07:28:47;;;;;;;9.80;8.80;;;17.20;99.90;;;;;;4960949;28;20451;-82
2021/09/09 07:31:14;;;;;;;14.40;9.53;;;17.30;99.90;;;;;;4960520;28;20446;-84
2021/09/09 07:33:41;;;;;;;9.60;8.60;;;17.30;99.90;;;;;;4960824;29;20954;-84
2021/09/09 07:36:08;;;;;;;10.07;9.10;;;17.40;99.90;;;;;;4962049;29;20480;-83
2021/09/09 07:38:34;;;;;;;13.17;10.30;;;17.50;99.90;;;;;;4969168;29;20454;-83
2021/09/09 07:41:01;;;;;;;15.90;9.83;;;17.50;99.90;;;;;;4971117;28;20542;-81
2021/09/09 07:43:28;;;;;;;10.77;9.77;;;17.60;99.90;;;;;;4968412;29;20451;-83
2021/09/09 07:45:56;;;;;;;13.70;9.80;;;17.70;99.90;;;;;;4960042;29;20459;-83
2021/09/09 07:48:23;;;;;;;11.17;8.40;;;17.80;99.90;;;;;;4963043;29;20547;-82
2021/09/09 07:50:50;;;;;;;13.70;8.70;;;17.90;99.90;;;;;;4972898;28;20462;-82
2021/09/09 07:53:16;;;;;;;11.37;8.77;;;18.00;99.90;;;;;;4973119;28;20447;-83
2021/09/09 07:55:43;;;;;;;12.63;9.20;;;18.10;99.90;;;;;;4970311;28;20450;-83
2021/09/09 07:58:10;;;;;;;9.57;8.63;;;18.10;99.90;;;;;;4970695;28;20427;-82
2021/09/09 08:00:36;;;;;;;8.77;7.80;;;18.20;99.90;;;;;;4974050;28;20466;-83
2021/09/09 08:03:04;;;;;;;12.40;8.50;;;18.20;99.90;;;;;;4960904;28;20533;-84
2021/09/09 08:05:31;;;;;;;12.90;10.37;;;18.30;99.90;;;;;;4960346;29;20864;-83
2021/09/09 08:07:58;;;;;;;11.33;8.97;;;18.40;99.90;;;;;;4960249;28;20458;-83
2021/09/09 08:10:24;;;;;;;9.80;8.37;;;18.40;99.90;;;;;;4959366;28;20982;-84
2021/09/09 08:12:51;;;;;;;8.10;7.30;;;18.40;99.90;;;;;;4959513;29;20450;-83
2021/09/09 08:15:18;;;;;;;10.50;7.73;;;18.50;99.90;;;;;;4960185;28;20454;-84
2021/09/09 08:17:45;;;;;;;12.90;9.33;;;18.50;99.90;;;;;;4959966;28;20455;-84
2021/09/09 08:20:14;;;;;;;11.40;8.37;;;18.60;99.90;;;;;;4959472;28;20498;-84
2021/09/09 08:22:41;;;;;;;7.73;7.07;;;18.60;99.90;;;;;;4964596;28;20451;-84
2021/09/09 08:25:09;;;;;;;11.17;9.20;;;18.70;99.90;;;;;;4972583;29;20486;-82
2021/09/09 08:27:36;;;;;;;14.03;9.33;;;18.70;99.90;;;;;;4972206;28;20446;-83
2021/09/09 08:30:05;;;;;;;21.00;8.50;;;18.70;99.90;;;;;;4969278;28;20485;-83
2021/09/09 08:32:32;;;;;;;11.87;8.43;;;18.80;99.90;;;;;;4962355;28;20478;-83
2021/09/09 08:34:59;;;;;;;9.30;8.40;;;18.80;99.90;;;;;;4963102;28;20478;-83
2021/09/09 08:37:27;;;;;;;13.57;10.70;;;18.90;99.90;;;;;;4969033;29;20450;-85
2021/09/09 08:39:54;;;;;;;10.20;9.03;;;18.90;99.90;;;;;;4970043;28;20481;-85
2021/09/09 08:42:20;;;;;;;9.50;8.60;;;19.00;99.90;;;;;;4970516;29;20450;-85
2021/09/09 08:44:48;;;;;;;11.10;9.90;;;19.10;99.90;;;;;;4971956;29;20516;-84
2021/09/09 08:47:15;;;;;;;11.73;8.90;;;19.20;99.90;;;;;;4973503;29;20450;-85
2021/09/09 08:49:42;;;;;;;11.93;9.00;;;19.30;99.90;;;;;;4972786;28;20621;-85
2021/09/09 08:52:11;;;;;;;15.70;8.77;;;19.30;99.90;;;;;;4978610;28;20438;-83
2021/09/09 08:54:39;;;;;;;11.30;9.50;;;19.40;99.90;;;;;;4978675;29;20457;-84
2021/09/09 08:57:06;;;;;;;11.97;10.73;;;19.50;99.90;;;;;;4978177;29;20445;-84
2021/09/09 08:59:34;;;;;;;15.07;11.30;;;19.50;99.90;;;;;;4974557;28;20467;-85
2021/09/09 09:02:03;;;;;;;13.10;11.37;;;19.60;99.90;;;;;;4979485;28;20510;-84
2021/09/09 09:04:30;;;;;;;11.60;10.30;;;19.60;99.90;;;;;;4973582;29;20470;-85
2021/09/09 09:06:57;;;;;;;10.73;9.17;;;19.70;99.90;;;;;;4972005;29;20450;-84
2021/09/09 09:09:24;;;;;;;17.70;13.40;;;20.00;99.90;;;;;;4969894;28;20474;-85
2021/09/09 09:11:53;;;;;;;14.30;11.80;;;19.80;99.90;;;;;;4969448;28;20468;-85
2021/09/09 09:14:22;;;;;;;10.10;9.10;;;19.90;99.90;;;;;;4969905;28;20793;-85
2021/09/09 09:16:50;;;;;;;11.70;9.00;;;19.90;99.90;;;;;;4970073;28;20461;-85
2021/09/09 09:19:20;;;;;;;13.50;11.87;;;19.80;99.90;;;;;;4969494;28;20475;-83
2021/09/09 09:21:50;;;;;;;10.37;9.03;;;20.00;99.90;;;;;;4971337;28;20486;-83
2021/09/09 09:24:19;;;;;;;19.23;12.23;;;20.00;99.90;;;;;;4974174;29;20475;-84
2021/09/09 09:27:09;;;;;;;11.10;10.00;;;20.10;99.90;;;;;;4974497;29;20466;-84
2021/09/09 09:29:36;;;;;;;12.37;10.00;;;20.10;99.90;;;;;;4969631;28;20568;-84
2021/09/09 09:32:18;;;;;;;9.80;8.00;;;20.20;99.90;;;;;;4973055;28;20459;-84
2021/09/09 09:34:49;;;;;;;16.40;9.87;;;20.30;99.90;;;;;;4964098;28;20439;-84
2021/09/09 09:37:21;;;;;;;12.40;10.37;;;20.30;99.90;;;;;;4967301;29;20522;-85
2021/09/09 09:39:47;;;;;;;10.10;8.97;;;20.40;99.90;;;;;;4976465;28;20554;-83
2021/09/09 09:42:15;;;;;;;10.60;8.77;;;20.50;99.90;;;;;;4979594;28;20435;-83
2021/09/09 09:44:47;;;;;;;12.93;10.53;;;20.50;99.90;;;;;;4979979;29;20466;-83
2021/09/09 09:47:15;;;;;;;10.77;8.77;;;20.50;99.90;;;;;;4979944;28;20427;-83
2021/09/09 09:49:43;;;;;;;12.47;9.50;;;20.60;99.90;;;;;;4980037;28;20463;-83
2021/09/09 09:52:18;;;;;;;9.40;8.40;;;20.60;99.90;;;;;;4979197;29;20471;-83
2021/09/09 09:54:51;;;;;;;11.97;9.93;;;20.70;99.90;;;;;;4979550;28;20423;-83
2021/09/09 09:57:19;;;;;;;10.43;9.40;;;20.80;99.90;;;;;;4979803;28;20503;-85
2021/09/09 09:59:46;;;;;;;9.80;8.67;;;20.80;99.90;;;;;;4971646;28;20470;-86
2021/09/09 10:02:13;;;;;;;17.03;11.40;;;20.80;99.90;;;;;;4969010;29;20450;-85
2021/09/09 10:04:42;;;;;;;13.00;9.13;;;20.80;99.90;;;;;;4967811;28;20490;-84
2021/09/09 10:07:10;;;;;;;10.53;7.63;;;20.90;99.90;;;;;;4974984;28;20526;-83
2021/09/09 10:09:37;;;;;;;9.60;8.20;;;20.90;99.90;;;;;;4976066;28;20496;-82
2021/09/09 10:12:04;;;;;;;11.10;8.87;;;21.00;99.90;;;;;;4975373;28;20453;-86
2021/09/09 10:14:32;;;;;;;20.33;14.07;;;21.10;99.90;;;;;;4967449;29;20526;-84
2021/09/09 10:17:00;;;;;;;9.90;8.47;;;21.10;99.90;;;;;;4967648;28;20455;-85
2021/09/09 10:19:30;;;;;;;11.97;10.53;;;21.20;99.90;;;;;;4967465;28;20521;-85
2021/09/09 10:22:05;;;;;;;13.33;11.33;;;21.30;99.90;;;;;;4966518;29;20449;-85
2021/09/09 10:24:34;;;;;;;11.77;10.50;;;21.40;99.90;;;;;;4966989;29;20490;-85
2021/09/09 10:27:22;;;;;;;12.47;10.40;;;21.40;99.90;;;;;;4967155;29;20461;-85
2021/09/09 10:29:59;;;;;;;8.23;7.53;;;21.40;99.90;;;;;;4966550;28;20525;-86
2021/09/09 10:32:49;;;;;;;10.57;9.47;;;21.70;99.90;;;;;;4968698;29;20473;-86
2021/09/09 10:35:30;;;;;;;12.73;11.40;;;21.60;99.90;;;;;;4967492;29;20486;-85
2021/09/09 10:37:59;;;;;;;12.63;10.80;;;21.60;99.90;;;;;;4972541;29;20429;-85
2021/09/09 10:40:33;;;;;;;11.67;9.23;;;21.70;99.90;;;;;;4968143;28;20501;-84
2021/09/09 10:43:00;;;;;;;12.27;10.50;;;21.80;99.90;;;;;;4962270;28;20454;-84
2021/09/09 10:45:40;;;;;;;15.00;11.00;;;21.80;99.90;;;;;;4964053;28;20486;-85
2021/09/09 10:48:09;;;;;;;13.47;12.07;;;21.90;99.90;;;;;;4966872;29;20458;-83
2021/09/09 10:50:37;;;;;;;11.17;9.97;;;21.90;99.90;;;;;;4976567;28;20467;-85
2021/09/09 10:53:05;;;;;;;11.77;8.73;;;22.00;99.90;;;;;;4968194;29;20446;-86
2021/09/09 10:55:34;;;;;;;12.43;9.13;;;22.00;99.90;;;;;;4965975;29;20455;-85
2021/09/09 10:58:29;;;;;;;9.37;7.93;;;22.10;99.90;;;;;;4966333;29;20447;-84
2021/09/09 11:01:01;;;;;;;9.90;7.70;;;22.10;99.90;;;;;;4966875;28;20538;-84
2021/09/09 11:03:42;;;;;;;9.20;8.30;;;22.20;99.90;;;;;;4967542;29;20442;-84
2021/09/09 11:06:10;;;;;;;8.00;7.30;;;22.20;99.90;;;;;;4966871;28;20498;-84
2021/09/09 11:08:40;;;;;;;16.33;12.37;;;22.30;99.90;;;;;;4973345;29;20442;-83
2021/09/09 11:11:08;;;;;;;18.27;13.33;;;22.40;99.90;;;;;;4973966;28;20471;-83
2021/09/09 11:13:36;;;;;;;21.23;16.40;;;22.40;99.90;;;;;;4967569;28;20824;-87
2021/09/09 11:16:20;;;;;;;9.43;8.43;;;22.40;99.90;;;;;;4958630;29;20946;-84
2021/09/09 11:18:48;;;;;;;9.63;7.83;;;22.40;99.90;;;;;;4960132;28;20427;-84
2021/09/09 11:21:24;;;;;;;8.33;7.30;;;22.50;99.90;;;;;;4995732;23;20578;-86
2021/09/09 11:24:00;;;;;;;13.13;10.27;;;22.50;99.90;;;;;;4984069;28;20441;-86
2021/09/09 11:51:37;;;;;;;11.27;7.30;;;23.60;99.90;;;;;;5085698;27;1166941;-83
2021/09/09 11:54:05;;;;;;;9.97;8.00;;;23.30;99.90;;;;;;5110210;28;20205;-86
2021/09/09 11:56:32;;;;;;;7.63;6.93;;;23.40;99.90;;;;;;5097402;28;20455;-85
2021/09/09 11:59:01;;;;;;;8.23;7.50;;;23.40;99.90;;;;;;5094717;28;20822;-86
2021/09/09 12:01:30;;;;;;;32.00;23.27;;;23.40;99.90;;;;;;5076833;28;20455;-84
2021/09/09 12:03:58;;;;;;;20.73;13.87;;;23.50;99.90;;;;;;5147761;22;20566;-86
2021/09/09 12:06:25;;;;;;;13.77;9.00;;;23.40;99.90;;;;;;5116537;28;20436;-86
2021/09/09 12:08:53;;;;;;;17.10;12.60;;;23.50;99.90;;;;;;5116503;28;20513;-86
2021/09/09 12:11:20;;;;;;;19.37;15.20;;;23.50;99.90;;;;;;5116772;28;20439;-86
2021/09/09 12:13:47;;;;;;;8.70;7.80;;;23.50;99.90;;;;;;5105259;28;20892;-86
2021/09/09 12:16:16;;;;;;;23.60;13.67;;;23.60;99.90;;;;;;5095043;28;20607;-86
2021/09/09 12:18:44;;;;;;;21.17;16.47;;;23.60;99.90;;;;;;5095276;28;20451;-87
2021/09/09 12:21:12;;;;;;;16.73;13.00;;;23.60;99.90;;;;;;5095834;28;20476;-86
2021/09/09 12:23:39;;;;;;;14.20;11.10;;;23.60;99.90;;;;;;5096261;28;21082;-86
2021/09/09 12:26:17;;;;;;;17.13;11.47;;;23.60;99.90;;;;;;5097159;28;21018;-86
2021/09/09 12:28:45;;;;;;;13.03;10.50;;;23.60;99.90;;;;;;5095915;28;20450;-86
2021/09/09 12:31:11;;;;;;;12.50;10.40;;;23.60;99.90;;;;;;5095204;28;20479;-86
2021/09/09 12:33:40;;;;;;;22.53;17.70;;;23.70;99.90;;;;;;5095504;28;20521;-87
2021/09/09 12:36:09;;;;;;;21.53;17.10;;;23.70;99.90;;;;;;5097278;28;20793;-87
2021/09/09 12:38:41;;;;;;;25.97;20.03;;;23.70;99.90;;;;;;5103548;28;20479;-86
2021/09/09 12:41:09;;;;;;;14.50;11.10;;;23.70;99.90;;;;;;5107033;28;20464;-86
2021/09/09 12:43:39;;;;;;;10.43;9.33;;;23.80;99.90;;;;;;5110553;28;20484;-86
2021/09/09 12:46:06;;;;;;;13.27;11.60;;;23.80;99.90;;;;;;5108330;28;20476;-86
2021/09/09 12:48:35;;;;;;;18.40;13.93;;;23.90;99.90;;;;;;5112135;28;20437;-86
2021/09/09 12:51:04;;;;;;;12.93;10.60;;;24.00;99.90;;;;;;5104299;28;20459;-86
2021/09/09 12:53:34;;;;;;;11.27;9.00;;;24.00;99.90;;;;;;5094653;28;20473;-86
2021/09/09 12:56:04;;;;;;;14.40;12.97;;;24.00;99.90;;;;;;5089161;28;20449;-86
2021/09/09 12:58:31;;;;;;;14.97;12.20;;;24.00;99.90;;;;;;5086317;28;20441;-86
2021/09/09 13:01:00;;;;;;;12.40;11.20;;;24.00;99.90;;;;;;5083766;28;21031;-87
2021/09/09 13:03:31;;;;;;;10.17;8.00;;;24.00;99.90;;;;;;5082435;28;20884;-86
2021/09/09 13:06:00;;;;;;;10.73;9.63;;;24.00;99.90;;;;;;5087137;28;20437;-86
2021/09/09 13:08:27;;;;;;;10.00;9.00;;;23.90;99.90;;;;;;5088178;28;20429;-87
2021/09/09 13:10:54;;;;;;;9.90;8.50;;;23.90;99.90;;;;;;5083296;28;20441;-87
2021/09/09 13:13:21;;;;;;;9.37;7.97;;;24.00;99.90;;;;;;5085886;28;20499;-87
2021/09/09 13:15:47;;;;;;;15.20;13.60;;;24.10;99.90;;;;;;5092135;28;20441;-87
2021/09/09 13:18:16;;;;;;;15.50;13.20;;;24.10;99.90;;;;;;5097928;28;20449;-87
2021/09/09 13:20:44;;;;;;;14.67;12.37;;;24.20;99.90;;;;;;5099744;28;20477;-87
2021/09/09 13:23:11;;;;;;;12.00;10.37;;;24.10;99.90;;;;;;5100406;28;20517;-89
2021/09/09 13:25:38;;;;;;;22.30;19.67;;;24.50;99.90;;;;;;5080757;28;20419;-89
2021/09/09 13:28:07;;;;;;;14.60;9.03;;;24.20;99.90;;;;;;5080596;28;20461;-89
2021/09/09 13:30:34;;;;;;;10.40;8.60;;;24.20;99.90;;;;;;5080146;28;20439;-86
2021/09/09 13:33:01;;;;;;;9.47;8.57;;;24.20;99.90;;;;;;5071982;28;20481;-87
2021/09/09 13:35:31;;;;;;;8.17;7.47;;;24.20;99.90;;;;;;5077230;28;20438;-87
2021/09/09 13:37:58;;;;;;;7.67;6.83;;;24.20;99.90;;;;;;5079824;28;20440;-87
2021/09/09 13:40:24;;;;;;;9.80;8.10;;;24.20;99.90;;;;;;5072955;28;20532;-86
2021/09/09 13:42:51;;;;;;;6.83;6.17;;;24.30;99.90;;;;;;5065750;28;20523;-86
2021/09/09 13:45:17;;;;;;;11.60;8.20;;;24.30;99.90;;;;;;5065620;28;20465;-87
2021/09/09 13:47:45;;;;;;;10.83;7.60;;;24.30;99.90;;;;;;5064962;28;20480;-87
2021/09/09 13:50:13;;;;;;;7.97;7.17;;;24.40;99.90;;;;;;5065964;28;20446;-87
2021/09/09 13:52:42;;;;;;;9.33;6.80;;;24.70;99.90;;;;;;5066305;28;20465;-87
2021/09/09 13:55:10;;;;;;;8.23;7.43;;;24.40;99.90;;;;;;5063616;28;20462;-87
2021/09/09 13:57:38;;;;;;;10.50;7.60;;;24.40;99.90;;;;;;5062063;28;20454;-87
2021/09/09 14:00:05;;;;;;;8.40;7.03;;;24.40;99.90;;;;;;5063269;28;20486;-87
2021/09/09 14:02:33;;;;;;;7.10;6.40;;;24.20;99.90;;;;;;5061546;28;20438;-88
2021/09/09 14:04:59;;;;;;;9.20;7.60;;;24.50;99.90;;;;;;5063899;28;20452;-86
2021/09/09 14:07:28;;;;;;;8.47;7.60;;;24.50;99.90;;;;;;5065542;28;20446;-87
2021/09/09 14:09:56;;;;;;;10.07;7.77;;;24.50;99.90;;;;;;5063477;28;20438;-87
2021/09/09 14:12:23;;;;;;;9.13;8.10;;;;;;;;;;5065690;28;20450;-87
2021/09/09 14:14:50;;;;;;;9.20;8.40;;;24.60;99.90;;;;;;5073212;28;21021;-87
2021/09/09 14:17:17;;;;;;;8.90;8.10;;;25.00;99.90;;;;;;5061769;28;20795;-87
2021/09/09 14:19:45;;;;;;;10.63;8.13;;;24.60;99.90;;;;;;5064294;28;20470;-87
2021/09/09 14:22:12;;;;;;;13.47;8.73;;;24.50;99.90;;;;;;5064461;28;20458;-87
2021/09/09 14:24:38;;;;;;;10.07;8.27;;;24.50;99.90;;;;;;5062775;28;20470;-87
2021/09/09 14:27:06;;;;;;;11.73;8.00;;;24.60;99.90;;;;;;5063257;28;20450;-86